sensor_id;sensor_type;location;lat;lon;timestamp;temperature;humidity
27803;DHT22;15182;48.174;11.562;2022-10-18T00:02:19;20.10;91.90
27803;DHT22;15182;48.174;11.562;2022-10-18T00:04:50;20.10;91.90
27803;DHT22;15182;48.174;11.562;2022-10-18T00:07:21;20.00;92.00
27803;DHT22;15182;48.174;11.562;2022-10-18T00:09:53;20.00;92.00
27803;DHT22;15182;48.174;11.562;2022-10-18T00:12:24;20.00;91.90
27803;DHT22;15182;48.174;11.562;2022-10-18T00:14:55;20.00;91.90
27803;DHT22;15182;48.174;11.562;2022-10-18T00:17:28;20.00;91.90
27803;DHT22;15182;48.174;11.562;2022-10-18T00:19:59;20.00;92.00
27803;DHT22;15182;48.174;11.562;2022-10-18T00:22:32;19.90;91.90
27803;DHT22;15182;48.174;11.562;2022-10-18T00:25:05;19.90;92.00
27803;DHT22;15182;48.174;11.562;2022-10-18T00:27:38;19.80;92.10
27803;DHT22;15182;48.174;11.562;2022-10-18T00:30:11;19.80;92.10
27803;DHT22;15182;48.174;11.562;2022-10-18T00:32:43;19.80;92.10
27803;DHT22;15182;48.174;11.562;2022-10-18T00:35:15;19.80;92.10
27803;DHT22;15182;48.174;11.562;2022-10-18T00:37:46;19.80;92.10
27803;DHT22;15182;48.174;11.562;2022-10-18T00:40:17;19.80;92.10
27803;DHT22;15182;48.174;11.562;2022-10-18T00:42:48;19.80;92.10
27803;DHT22;15182;48.174;11.562;2022-10-18T00:45:21;19.70;92.10
27803;DHT22;15182;48.174;11.562;2022-10-18T00:48:00;19.70;92.20
27803;DHT22;15182;48.174;11.562;2022-10-18T00:50:35;19.70;92.40
27803;DHT22;15182;48.174;11.562;2022-10-18T00:53:08;19.70;92.40
27803;DHT22;15182;48.174;11.562;2022-10-18T00:55:45;19.60;92.30
27803;DHT22;15182;48.174;11.562;2022-10-18T00:58:18;19.60;92.30
27803;DHT22;15182;48.174;11.562;2022-10-18T01:00:51;19.60;92.30
27803;DHT22;15182;48.174;11.562;2022-10-18T01:03:24;19.60;92.30
27803;DHT22;15182;48.174;11.562;2022-10-18T01:05:55;19.50;92.40
27803;DHT22;15182;48.174;11.562;2022-10-18T01:08:43;19.50;92.40
27803;DHT22;15182;48.174;11.562;2022-10-18T01:11:32;19.50;92.40
27803;DHT22;15182;48.174;11.562;2022-10-18T01:14:30;19.50;92.50
27803;DHT22;15182;48.174;11.562;2022-10-18T01:17:10;19.50;92.50
27803;DHT22;15182;48.174;11.562;2022-10-18T01:20:06;19.50;92.50
27803;DHT22;15182;48.174;11.562;2022-10-18T01:22:59;19.50;92.50
27803;DHT22;15182;48.174;11.562;2022-10-18T01:25:38;19.40;92.40
27803;DHT22;15182;48.174;11.562;2022-10-18T01:28:23;19.40;92.50
27803;DHT22;15182;48.174;11.562;2022-10-18T01:31:02;19.40;92.50
27803;DHT22;15182;48.174;11.562;2022-10-18T01:33:37;19.40;92.40
27803;DHT22;15182;48.174;11.562;2022-10-18T01:36:16;19.30;92.80
27803;DHT22;15182;48.174;11.562;2022-10-18T01:38:52;19.30;92.60
27803;DHT22;15182;48.174;11.562;2022-10-18T01:41:26;19.30;92.60
27803;DHT22;15182;48.174;11.562;2022-10-18T01:43:59;19.30;92.50
27803;DHT22;15182;48.174;11.562;2022-10-18T01:46:34;19.30;92.60
27803;DHT22;15182;48.174;11.562;2022-10-18T01:49:07;19.20;92.60
27803;DHT22;15182;48.174;11.562;2022-10-18T01:51:38;19.20;92.60
27803;DHT22;15182;48.174;11.562;2022-10-18T01:54:11;19.20;92.60
27803;DHT22;15182;48.174;11.562;2022-10-18T01:56:48;19.20;92.70
27803;DHT22;15182;48.174;11.562;2022-10-18T01:59:39;19.20;92.80
27803;DHT22;15182;48.174;11.562;2022-10-18T02:02:23;19.20;92.80
27803;DHT22;15182;48.174;11.562;2022-10-18T02:05:04;19.10;92.70
27803;DHT22;15182;48.174;11.562;2022-10-18T02:07:45;19.10;92.70
27803;DHT22;15182;48.174;11.562;2022-10-18T02:10:23;19.10;92.80
27803;DHT22;15182;48.174;11.562;2022-10-18T02:12:58;19.10;92.70
27803;DHT22;15182;48.174;11.562;2022-10-18T02:15:33;19.10;92.70
27803;DHT22;15182;48.174;11.562;2022-10-18T02:18:10;19.10;92.70
27803;DHT22;15182;48.174;11.562;2022-10-18T02:20:44;19.00;92.80
27803;DHT22;15182;48.174;11.562;2022-10-18T02:23:19;19.00;92.80
27803;DHT22;15182;48.174;11.562;2022-10-18T02:25:52;19.00;92.90
27803;DHT22;15182;48.174;11.562;2022-10-18T02:28:23;19.00;92.90
27803;DHT22;15182;48.174;11.562;2022-10-18T02:30:59;18.90;92.80
27803;DHT22;15182;48.174;11.562;2022-10-18T02:33:42;18.90;92.90
27803;DHT22;15182;48.174;11.562;2022-10-18T02:36:21;18.90;92.90
27803;DHT22;15182;48.174;11.562;2022-10-18T02:38:58;18.90;92.90
27803;DHT22;15182;48.174;11.562;2022-10-18T02:41:33;18.90;93.00
27803;DHT22;15182;48.174;11.562;2022-10-18T02:44:04;18.80;93.00
27803;DHT22;15182;48.174;11.562;2022-10-18T02:46:36;18.80;93.00
27803;DHT22;15182;48.174;11.562;2022-10-18T02:49:08;18.80;93.00
27803;DHT22;15182;48.174;11.562;2022-10-18T02:51:40;18.80;93.10
27803;DHT22;15182;48.174;11.562;2022-10-18T02:54:12;18.80;93.10
27803;DHT22;15182;48.174;11.562;2022-10-18T02:56:43;18.80;93.10
27803;DHT22;15182;48.174;11.562;2022-10-18T02:59:15;18.80;93.10
27803;DHT22;15182;48.174;11.562;2022-10-18T03:01:46;18.80;93.20
27803;DHT22;15182;48.174;11.562;2022-10-18T03:04:19;18.80;93.20
27803;DHT22;15182;48.174;11.562;2022-10-18T03:06:50;18.80;93.20
27803;DHT22;15182;48.174;11.562;2022-10-18T03:09:21;18.80;93.10
27803;DHT22;15182;48.174;11.562;2022-10-18T03:11:53;18.80;93.10
27803;DHT22;15182;48.174;11.562;2022-10-18T03:14:25;18.70;93.50
27803;DHT22;15182;48.174;11.562;2022-10-18T03:16:56;18.70;93.10
27803;DHT22;15182;48.174;11.562;2022-10-18T03:19:29;18.70;93.10
27803;DHT22;15182;48.174;11.562;2022-10-18T03:22:00;18.70;93.10
27803;DHT22;15182;48.174;11.562;2022-10-18T03:24:32;18.70;93.10
27803;DHT22;15182;48.174;11.562;2022-10-18T03:27:03;18.70;93.10
27803;DHT22;15182;48.174;11.562;2022-10-18T03:29:34;18.70;93.10
27803;DHT22;15182;48.174;11.562;2022-10-18T03:32:06;18.70;93.10
27803;DHT22;15182;48.174;11.562;2022-10-18T03:34:38;18.70;93.10
27803;DHT22;15182;48.174;11.562;2022-10-18T03:37:09;18.70;93.00
27803;DHT22;15182;48.174;11.562;2022-10-18T03:39:41;18.60;93.00
27803;DHT22;15182;48.174;11.562;2022-10-18T03:42:12;18.60;93.00
27803;DHT22;15182;48.174;11.562;2022-10-18T03:44:43;18.60;93.10
27803;DHT22;15182;48.174;11.562;2022-10-18T03:47:14;18.50;93.10
27803;DHT22;15182;48.174;11.562;2022-10-18T03:49:47;18.50;93.20
27803;DHT22;15182;48.174;11.562;2022-10-18T03:52:18;18.50;93.20
27803;DHT22;15182;48.174;11.562;2022-10-18T03:54:49;18.50;93.20
27803;DHT22;15182;48.174;11.562;2022-10-18T03:57:20;18.50;93.30
27803;DHT22;15182;48.174;11.562;2022-10-18T03:59:52;18.50;93.30
27803;DHT22;15182;48.174;11.562;2022-10-18T04:02:23;18.50;93.30
27803;DHT22;15182;48.174;11.562;2022-10-18T04:04:55;18.50;93.30
27803;DHT22;15182;48.174;11.562;2022-10-18T04:07:27;18.50;93.40
27803;DHT22;15182;48.174;11.562;2022-10-18T04:09:58;18.50;93.30
27803;DHT22;15182;48.174;11.562;2022-10-18T04:12:29;18.50;93.30
27803;DHT22;15182;48.174;11.562;2022-10-18T04:15:00;18.50;93.40
27803;DHT22;15182;48.174;11.562;2022-10-18T04:17:31;18.40;93.40
27803;DHT22;15182;48.174;11.562;2022-10-18T04:20:05;18.50;93.40
27803;DHT22;15182;48.174;11.562;2022-10-18T04:22:38;18.40;93.40
27803;DHT22;15182;48.174;11.562;2022-10-18T04:25:10;18.40;93.40
27803;DHT22;15182;48.174;11.562;2022-10-18T04:27:42;18.40;93.30
27803;DHT22;15182;48.174;11.562;2022-10-18T04:30:14;18.40;93.30
27803;DHT22;15182;48.174;11.562;2022-10-18T04:32:45;18.40;93.30
27803;DHT22;15182;48.174;11.562;2022-10-18T04:35:18;18.40;93.30
27803;DHT22;15182;48.174;11.562;2022-10-18T04:37:53;18.30;93.30
27803;DHT22;15182;48.174;11.562;2022-10-18T04:40:24;18.30;93.30
27803;DHT22;15182;48.174;11.562;2022-10-18T04:42:55;18.30;93.30
27803;DHT22;15182;48.174;11.562;2022-10-18T04:45:26;18.30;93.40
27803;DHT22;15182;48.174;11.562;2022-10-18T04:47:57;18.30;93.40
27803;DHT22;15182;48.174;11.562;2022-10-18T04:50:30;18.30;93.40
27803;DHT22;15182;48.174;11.562;2022-10-18T04:53:01;18.30;93.40
27803;DHT22;15182;48.174;11.562;2022-10-18T04:55:32;18.30;93.40
27803;DHT22;15182;48.174;11.562;2022-10-18T04:58:04;18.20;93.40
27803;DHT22;15182;48.174;11.562;2022-10-18T05:00:35;18.30;93.40
27803;DHT22;15182;48.174;11.562;2022-10-18T05:03:06;18.20;93.50
27803;DHT22;15182;48.174;11.562;2022-10-18T05:05:39;18.30;93.50
27803;DHT22;15182;48.174;11.562;2022-10-18T05:08:12;18.20;93.60
27803;DHT22;15182;48.174;11.562;2022-10-18T05:10:44;18.20;93.60
27803;DHT22;15182;48.174;11.562;2022-10-18T05:13:15;18.20;93.60
27803;DHT22;15182;48.174;11.562;2022-10-18T05:15:47;18.20;93.60
27803;DHT22;15182;48.174;11.562;2022-10-18T05:18:18;18.20;93.70
27803;DHT22;15182;48.174;11.562;2022-10-18T05:20:51;18.20;93.70
27803;DHT22;15182;48.174;11.562;2022-10-18T05:23:23;18.20;93.70
27803;DHT22;15182;48.174;11.562;2022-10-18T05:25:59;18.20;93.70
27803;DHT22;15182;48.174;11.562;2022-10-18T05:28:31;18.20;93.70
27803;DHT22;15182;48.174;11.562;2022-10-18T05:31:03;18.20;93.70
27803;DHT22;15182;48.174;11.562;2022-10-18T05:33:36;18.20;93.80
27803;DHT22;15182;48.174;11.562;2022-10-18T05:36:10;18.30;93.80
27803;DHT22;15182;48.174;11.562;2022-10-18T05:38:42;18.30;93.80
27803;DHT22;15182;48.174;11.562;2022-10-18T05:41:15;18.30;93.80
27803;DHT22;15182;48.174;11.562;2022-10-18T05:43:46;18.30;93.80
27803;DHT22;15182;48.174;11.562;2022-10-18T05:46:17;18.30;93.90
27803;DHT22;15182;48.174;11.562;2022-10-18T05:48:50;18.40;93.90
27803;DHT22;15182;48.174;11.562;2022-10-18T05:51:23;18.40;94.00
27803;DHT22;15182;48.174;11.562;2022-10-18T05:53:54;18.40;93.90
27803;DHT22;15182;48.174;11.562;2022-10-18T05:56:25;18.40;93.90
27803;DHT22;15182;48.174;11.562;2022-10-18T05:58:56;18.40;93.90
27803;DHT22;15182;48.174;11.562;2022-10-18T06:01:28;18.40;93.90
27803;DHT22;15182;48.174;11.562;2022-10-18T06:03:59;18.40;94.00
27803;DHT22;15182;48.174;11.562;2022-10-18T06:06:32;18.40;94.00
27803;DHT22;15182;48.174;11.562;2022-10-18T06:09:05;18.40;94.10
27803;DHT22;15182;48.174;11.562;2022-10-18T06:11:38;18.40;94.00
27803;DHT22;15182;48.174;11.562;2022-10-18T06:14:10;18.40;94.10
27803;DHT22;15182;48.174;11.562;2022-10-18T06:16:41;18.40;94.10
27803;DHT22;15182;48.174;11.562;2022-10-18T06:19:13;18.50;94.20
27803;DHT22;15182;48.174;11.562;2022-10-18T06:21:45;18.50;94.20
27803;DHT22;15182;48.174;11.562;2022-10-18T06:24:16;18.50;94.30
27803;DHT22;15182;48.174;11.562;2022-10-18T06:26:48;18.50;94.20
27803;DHT22;15182;48.174;11.562;2022-10-18T06:29:21;18.60;94.20
27803;DHT22;15182;48.174;11.562;2022-10-18T06:31:52;18.60;94.20
27803;DHT22;15182;48.174;11.562;2022-10-18T06:34:24;18.60;94.10
27803;DHT22;15182;48.174;11.562;2022-10-18T06:36:56;18.60;94.10
27803;DHT22;15182;48.174;11.562;2022-10-18T06:39:28;18.60;94.10
27803;DHT22;15182;48.174;11.562;2022-10-18T06:41:59;18.60;94.40
27803;DHT22;15182;48.174;11.562;2022-10-18T06:44:35;18.70;94.00
27803;DHT22;15182;48.174;11.562;2022-10-18T06:47:08;18.70;94.00
27803;DHT22;15182;48.174;11.562;2022-10-18T06:49:39;18.70;94.00
27803;DHT22;15182;48.174;11.562;2022-10-18T06:52:12;18.70;94.10
27803;DHT22;15182;48.174;11.562;2022-10-18T06:54:43;18.70;94.20
27803;DHT22;15182;48.174;11.562;2022-10-18T06:57:14;18.80;94.10
27803;DHT22;15182;48.174;11.562;2022-10-18T06:59:45;18.80;94.20
27803;DHT22;15182;48.174;11.562;2022-10-18T07:02:18;18.80;94.20
27803;DHT22;15182;48.174;11.562;2022-10-18T07:04:50;18.80;94.20
27803;DHT22;15182;48.174;11.562;2022-10-18T07:07:22;18.80;94.20
27803;DHT22;15182;48.174;11.562;2022-10-18T07:09:53;18.80;94.20
27803;DHT22;15182;48.174;11.562;2022-10-18T07:12:25;18.80;94.20
27803;DHT22;15182;48.174;11.562;2022-10-18T07:14:56;18.80;94.30
27803;DHT22;15182;48.174;11.562;2022-10-18T07:17:28;18.80;94.40
27803;DHT22;15182;48.174;11.562;2022-10-18T07:19:59;18.80;94.70
27803;DHT22;15182;48.174;11.562;2022-10-18T07:22:32;18.80;94.30
27803;DHT22;15182;48.174;11.562;2022-10-18T07:25:06;18.90;94.40
27803;DHT22;15182;48.174;11.562;2022-10-18T07:27:39;18.80;94.30
27803;DHT22;15182;48.174;11.562;2022-10-18T07:30:12;18.90;94.40
27803;DHT22;15182;48.174;11.562;2022-10-18T07:32:43;18.90;94.50
27803;DHT22;15182;48.174;11.562;2022-10-18T07:35:13;18.90;94.80
27803;DHT22;15182;48.174;11.562;2022-10-18T07:37:46;18.90;94.40
27803;DHT22;15182;48.174;11.562;2022-10-18T07:40:17;19.00;94.40
27803;DHT22;15182;48.174;11.562;2022-10-18T07:42:48;19.10;94.40
27803;DHT22;15182;48.174;11.562;2022-10-18T07:45:19;19.10;94.50
27803;DHT22;15182;48.174;11.562;2022-10-18T07:47:55;19.10;94.50
27803;DHT22;15182;48.174;11.562;2022-10-18T07:50:26;19.20;94.70
27803;DHT22;15182;48.174;11.562;2022-10-18T07:52:58;19.20;94.60
27803;DHT22;15182;48.174;11.562;2022-10-18T07:55:29;19.30;94.70
27803;DHT22;15182;48.174;11.562;2022-10-18T07:58:01;19.30;94.60
27803;DHT22;15182;48.174;11.562;2022-10-18T08:00:33;19.40;94.60
27803;DHT22;15182;48.174;11.562;2022-10-18T08:03:04;19.40;94.60
27803;DHT22;15182;48.174;11.562;2022-10-18T08:05:35;19.50;94.70
27803;DHT22;15182;48.174;11.562;2022-10-18T08:08:08;19.50;94.70
27803;DHT22;15182;48.174;11.562;2022-10-18T08:10:39;19.60;94.60
27803;DHT22;15182;48.174;11.562;2022-10-18T08:13:10;19.60;94.60
27803;DHT22;15182;48.174;11.562;2022-10-18T08:15:42;19.70;94.50
27803;DHT22;15182;48.174;11.562;2022-10-18T08:18:14;19.70;94.50
27803;DHT22;15182;48.174;11.562;2022-10-18T08:20:46;19.80;94.50
27803;DHT22;15182;48.174;11.562;2022-10-18T08:23:18;19.80;94.40
27803;DHT22;15182;48.174;11.562;2022-10-18T08:25:49;19.90;94.40
27803;DHT22;15182;48.174;11.562;2022-10-18T08:28:21;20.00;94.40
27803;DHT22;15182;48.174;11.562;2022-10-18T08:30:52;20.00;94.40
27803;DHT22;15182;48.174;11.562;2022-10-18T08:33:23;20.10;94.40
27803;DHT22;15182;48.174;11.562;2022-10-18T08:35:59;20.20;94.40
27803;DHT22;15182;48.174;11.562;2022-10-18T08:38:35;20.40;94.40
27803;DHT22;15182;48.174;11.562;2022-10-18T08:41:21;20.50;94.30
27803;DHT22;15182;48.174;11.562;2022-10-18T08:44:04;20.60;94.30
27803;DHT22;15182;48.174;11.562;2022-10-18T08:46:40;20.70;94.30
27803;DHT22;15182;48.174;11.562;2022-10-18T08:49:23;20.70;94.10
27803;DHT22;15182;48.174;11.562;2022-10-18T08:51:57;20.90;94.30
27803;DHT22;15182;48.174;11.562;2022-10-18T08:54:36;21.00;94.00
27803;DHT22;15182;48.174;11.562;2022-10-18T08:57:14;21.10;93.90
27803;DHT22;15182;48.174;11.562;2022-10-18T08:59:46;21.20;93.80
27803;DHT22;15182;48.174;11.562;2022-10-18T09:02:24;21.30;93.90
27803;DHT22;15182;48.174;11.562;2022-10-18T09:05:06;21.40;93.80
27803;DHT22;15182;48.174;11.562;2022-10-18T09:08:08;21.50;93.70
27803;DHT22;15182;48.174;11.562;2022-10-18T09:11:04;21.70;93.90
27803;DHT22;15182;48.174;11.562;2022-10-18T09:14:01;21.90;93.80
27803;DHT22;15182;48.174;11.562;2022-10-18T09:16:43;22.00;93.40
27803;DHT22;15182;48.174;11.562;2022-10-18T09:19:22;22.10;93.20
27803;DHT22;15182;48.174;11.562;2022-10-18T09:22:00;22.20;93.20
27803;DHT22;15182;48.174;11.562;2022-10-18T09:24:43;22.30;93.20
27803;DHT22;15182;48.174;11.562;2022-10-18T09:27:21;22.30;93.20
27803;DHT22;15182;48.174;11.562;2022-10-18T09:30:02;22.40;93.00
27803;DHT22;15182;48.174;11.562;2022-10-18T09:32:44;22.50;93.10
27803;DHT22;15182;48.174;11.562;2022-10-18T09:35:21;22.60;92.90
27803;DHT22;15182;48.174;11.562;2022-10-18T09:38:01;22.70;92.90
27803;DHT22;15182;48.174;11.562;2022-10-18T09:40:42;22.80;92.90
27803;DHT22;15182;48.174;11.562;2022-10-18T09:43:21;22.90;92.70
27803;DHT22;15182;48.174;11.562;2022-10-18T09:45:55;23.00;92.80
27803;DHT22;15182;48.174;11.562;2022-10-18T09:48:28;23.20;92.70
27803;DHT22;15182;48.174;11.562;2022-10-18T09:51:07;23.20;92.70
27803;DHT22;15182;48.174;11.562;2022-10-18T09:53:49;23.30;92.50
27803;DHT22;15182;48.174;11.562;2022-10-18T09:56:39;23.40;92.20
27803;DHT22;15182;48.174;11.562;2022-10-18T09:59:26;23.40;91.90
27803;DHT22;15182;48.174;11.562;2022-10-18T10:01:59;23.50;91.80
27803;DHT22;15182;48.174;11.562;2022-10-18T10:04:30;23.50;91.80
27803;DHT22;15182;48.174;11.562;2022-10-18T10:07:03;23.50;91.50
27803;DHT22;15182;48.174;11.562;2022-10-18T10:09:43;23.50;91.50
27803;DHT22;15182;48.174;11.562;2022-10-18T10:12:26;23.60;91.70
27803;DHT22;15182;48.174;11.562;2022-10-18T10:15:11;23.70;91.30
27803;DHT22;15182;48.174;11.562;2022-10-18T10:17:53;23.70;91.10
27803;DHT22;15182;48.174;11.562;2022-10-18T10:20:29;23.80;91.00
27803;DHT22;15182;48.174;11.562;2022-10-18T10:23:11;23.80;90.90
27803;DHT22;15182;48.174;11.562;2022-10-18T10:25:47;23.90;91.20
27803;DHT22;15182;48.174;11.562;2022-10-18T10:28:25;23.90;91.20
27803;DHT22;15182;48.174;11.562;2022-10-18T10:31:16;24.00;91.00
27803;DHT22;15182;48.174;11.562;2022-10-18T10:34:01;24.10;91.00
27803;DHT22;15182;48.174;11.562;2022-10-18T10:36:34;24.20;90.90
27803;DHT22;15182;48.174;11.562;2022-10-18T10:39:18;24.30;90.80
27803;DHT22;15182;48.174;11.562;2022-10-18T10:41:53;24.50;90.70
27803;DHT22;15182;48.174;11.562;2022-10-18T10:44:28;24.60;90.70
27803;DHT22;15182;48.174;11.562;2022-10-18T10:47:02;24.80;90.40
27803;DHT22;15182;48.174;11.562;2022-10-18T10:49:44;25.00;90.30
27803;DHT22;15182;48.174;11.562;2022-10-18T10:52:19;25.10;90.30
27803;DHT22;15182;48.174;11.562;2022-10-18T10:54:55;25.30;90.00
27803;DHT22;15182;48.174;11.562;2022-10-18T10:57:29;25.50;89.70
27803;DHT22;15182;48.174;11.562;2022-10-18T11:00:01;25.60;89.30
27803;DHT22;15182;48.174;11.562;2022-10-18T11:02:37;25.80;89.20
27803;DHT22;15182;48.174;11.562;2022-10-18T11:05:20;26.00;88.50
27803;DHT22;15182;48.174;11.562;2022-10-18T11:07:57;26.10;87.80
27803;DHT22;15182;48.174;11.562;2022-10-18T11:10:33;26.20;87.70
27803;DHT22;15182;48.174;11.562;2022-10-18T11:13:20;26.40;87.50
27803;DHT22;15182;48.174;11.562;2022-10-18T11:15:57;26.50;86.70
27803;DHT22;15182;48.174;11.562;2022-10-18T11:18:35;26.70;87.60
27803;DHT22;15182;48.174;11.562;2022-10-18T11:21:13;26.90;86.20
27803;DHT22;15182;48.174;11.562;2022-10-18T11:23:46;27.00;86.40
27803;DHT22;15182;48.174;11.562;2022-10-18T11:26:31;27.20;86.10
27803;DHT22;15182;48.174;11.562;2022-10-18T11:29:20;27.30;84.60
27803;DHT22;15182;48.174;11.562;2022-10-18T11:32:16;27.50;84.20
27803;DHT22;15182;48.174;11.562;2022-10-18T11:35:01;27.60;83.70
27803;DHT22;15182;48.174;11.562;2022-10-18T11:38:05;27.60;83.20
27803;DHT22;15182;48.174;11.562;2022-10-18T11:40:59;27.70;83.00
27803;DHT22;15182;48.174;11.562;2022-10-18T11:43:42;27.70;82.90
27803;DHT22;15182;48.174;11.562;2022-10-18T11:46:21;27.70;82.40
27803;DHT22;15182;48.174;11.562;2022-10-18T11:49:11;27.70;82.40
27803;DHT22;15182;48.174;11.562;2022-10-18T11:52:02;27.70;82.40
27803;DHT22;15182;48.174;11.562;2022-10-18T11:54:55;27.80;82.70
27803;DHT22;15182;48.174;11.562;2022-10-18T11:57:42;27.90;83.00
27803;DHT22;15182;48.174;11.562;2022-10-18T12:00:27;28.00;82.50
27803;DHT22;15182;48.174;11.562;2022-10-18T12:06:10;28.20;82.00
27803;DHT22;15182;48.174;11.562;2022-10-18T12:08:48;28.30;82.50
27803;DHT22;15182;48.174;11.562;2022-10-18T12:11:26;28.40;81.60
27803;DHT22;15182;48.174;11.562;2022-10-18T12:14:01;28.40;81.20
27803;DHT22;15182;48.174;11.562;2022-10-18T12:16:37;28.50;81.30
27803;DHT22;15182;48.174;11.562;2022-10-18T12:19:16;28.50;81.00
27803;DHT22;15182;48.174;11.562;2022-10-18T12:21:50;28.50;80.50
27803;DHT22;15182;48.174;11.562;2022-10-18T12:24:27;28.40;80.50
27803;DHT22;15182;48.174;11.562;2022-10-18T12:27:01;28.30;79.90
27803;DHT22;15182;48.174;11.562;2022-10-18T12:29:38;28.20;80.60
27803;DHT22;15182;48.174;11.562;2022-10-18T12:32:13;28.10;80.40
27803;DHT22;15182;48.174;11.562;2022-10-18T12:34:48;28.00;80.40
27803;DHT22;15182;48.174;11.562;2022-10-18T12:37:44;27.90;80.50
27803;DHT22;15182;48.174;11.562;2022-10-18T12:40:28;27.80;80.20
27803;DHT22;15182;48.174;11.562;2022-10-18T12:43:07;27.60;80.30
27803;DHT22;15182;48.174;11.562;2022-10-18T12:45:49;27.50;79.50
27803;DHT22;15182;48.174;11.562;2022-10-18T12:48:37;27.40;79.40
27803;DHT22;15182;48.174;11.562;2022-10-18T12:51:14;27.30;79.30
27803;DHT22;15182;48.174;11.562;2022-10-18T12:53:49;27.10;80.40
27803;DHT22;15182;48.174;11.562;2022-10-18T12:56:38;27.10;79.90
27803;DHT22;15182;48.174;11.562;2022-10-18T13:02:27;26.90;79.90
27803;DHT22;15182;48.174;11.562;2022-10-18T13:05:55;26.90;80.10
27803;DHT22;15182;48.174;11.562;2022-10-18T13:08:36;26.90;80.50
27803;DHT22;15182;48.174;11.562;2022-10-18T13:11:32;26.80;80.30
27803;DHT22;15182;48.174;11.562;2022-10-18T13:14:16;26.70;80.20
27803;DHT22;15182;48.174;11.562;2022-10-18T13:17:15;26.60;80.30
27803;DHT22;15182;48.174;11.562;2022-10-18T13:19:54;26.60;80.70
27803;DHT22;15182;48.174;11.562;2022-10-18T13:22:37;26.50;80.60
27803;DHT22;15182;48.174;11.562;2022-10-18T13:25:23;26.40;80.50
27803;DHT22;15182;48.174;11.562;2022-10-18T13:28:04;26.40;81.00
27803;DHT22;15182;48.174;11.562;2022-10-18T13:30:52;26.30;81.20
27803;DHT22;15182;48.174;11.562;2022-10-18T13:33:31;26.30;81.00
27803;DHT22;15182;48.174;11.562;2022-10-18T13:36:17;26.20;80.80
27803;DHT22;15182;48.174;11.562;2022-10-18T13:39:02;26.10;81.00
27803;DHT22;15182;48.174;11.562;2022-10-18T13:42:18;26.10;80.70
27803;DHT22;15182;48.174;11.562;2022-10-18T13:48:48;25.90;80.70
27803;DHT22;15182;48.174;11.562;2022-10-18T13:51:42;25.90;81.40
27803;DHT22;15182;48.174;11.562;2022-10-18T13:54:30;25.80;81.40
27803;DHT22;15182;48.174;11.562;2022-10-18T13:57:14;25.80;81.80
27803;DHT22;15182;48.174;11.562;2022-10-18T14:00:20;25.70;81.80
27803;DHT22;15182;48.174;11.562;2022-10-18T14:03:15;25.70;81.50
27803;DHT22;15182;48.174;11.562;2022-10-18T14:05:53;25.70;82.00
27803;DHT22;15182;48.174;11.562;2022-10-18T14:08:31;25.60;82.00
27803;DHT22;15182;48.174;11.562;2022-10-18T14:11:06;25.60;82.10
27803;DHT22;15182;48.174;11.562;2022-10-18T14:13:50;25.50;82.40
27803;DHT22;15182;48.174;11.562;2022-10-18T14:16:30;25.50;82.50
27803;DHT22;15182;48.174;11.562;2022-10-18T14:19:15;25.50;82.60
27803;DHT22;15182;48.174;11.562;2022-10-18T14:21:52;25.50;82.70
27803;DHT22;15182;48.174;11.562;2022-10-18T14:24:26;25.40;82.80
27803;DHT22;15182;48.174;11.562;2022-10-18T14:27:11;25.40;83.00
27803;DHT22;15182;48.174;11.562;2022-10-18T14:29:46;25.30;82.90
27803;DHT22;15182;48.174;11.562;2022-10-18T14:32:23;25.30;83.20
27803;DHT22;15182;48.174;11.562;2022-10-18T14:34:56;25.20;83.30
27803;DHT22;15182;48.174;11.562;2022-10-18T14:37:29;25.20;83.60
27803;DHT22;15182;48.174;11.562;2022-10-18T14:40:04;25.20;83.70
27803;DHT22;15182;48.174;11.562;2022-10-18T14:42:52;25.20;83.80
27803;DHT22;15182;48.174;11.562;2022-10-18T14:45:25;25.20;84.10
27803;DHT22;15182;48.174;11.562;2022-10-18T14:48:04;25.10;84.10
27803;DHT22;15182;48.174;11.562;2022-10-18T14:50:35;25.10;84.40
27803;DHT22;15182;48.174;11.562;2022-10-18T14:53:08;25.10;84.50
27803;DHT22;15182;48.174;11.562;2022-10-18T14:55:41;25.10;84.80
27803;DHT22;15182;48.174;11.562;2022-10-18T14:58:15;25.00;84.90
27803;DHT22;15182;48.174;11.562;2022-10-18T15:00:48;25.00;85.00
27803;DHT22;15182;48.174;11.562;2022-10-18T15:03:20;25.00;85.00
27803;DHT22;15182;48.174;11.562;2022-10-18T15:05:51;25.00;84.70
27803;DHT22;15182;48.174;11.562;2022-10-18T15:08:27;25.00;84.80
27803;DHT22;15182;48.174;11.562;2022-10-18T15:11:01;25.00;84.50
27803;DHT22;15182;48.174;11.562;2022-10-18T15:13:35;25.00;84.60
27803;DHT22;15182;48.174;11.562;2022-10-18T15:16:15;25.00;84.40
27803;DHT22;15182;48.174;11.562;2022-10-18T15:18:59;24.90;84.40
27803;DHT22;15182;48.174;11.562;2022-10-18T15:21:30;24.90;84.60
27803;DHT22;15182;48.174;11.562;2022-10-18T15:24:27;24.90;84.90
27803;DHT22;15182;48.174;11.562;2022-10-18T15:27:02;24.90;85.50
27803;DHT22;15182;48.174;11.562;2022-10-18T15:29:39;24.90;84.90
27803;DHT22;15182;48.174;11.562;2022-10-18T15:32:26;24.90;84.80
27803;DHT22;15182;48.174;11.562;2022-10-18T15:35:08;24.80;84.70
27803;DHT22;15182;48.174;11.562;2022-10-18T15:37:47;24.80;84.60
27803;DHT22;15182;48.174;11.562;2022-10-18T15:40:30;24.80;84.50
27803;DHT22;15182;48.174;11.562;2022-10-18T15:43:02;24.80;84.60
27803;DHT22;15182;48.174;11.562;2022-10-18T15:45:54;24.80;84.90
27803;DHT22;15182;48.174;11.562;2022-10-18T15:48:29;24.70;84.90
27803;DHT22;15182;48.174;11.562;2022-10-18T15:51:04;24.70;85.20
27803;DHT22;15182;48.174;11.562;2022-10-18T15:53:40;24.70;85.20
27803;DHT22;15182;48.174;11.562;2022-10-18T15:56:34;24.70;86.40
27803;DHT22;15182;48.174;11.562;2022-10-18T15:59:20;24.60;85.40
27803;DHT22;15182;48.174;11.562;2022-10-18T16:01:50;24.60;85.60
27803;DHT22;15182;48.174;11.562;2022-10-18T16:04:25;24.60;85.80
27803;DHT22;15182;48.174;11.562;2022-10-18T16:06:59;24.60;86.00
27803;DHT22;15182;48.174;11.562;2022-10-18T16:09:31;24.60;86.20
27803;DHT22;15182;48.174;11.562;2022-10-18T16:12:02;24.60;86.70
27803;DHT22;15182;48.174;11.562;2022-10-18T16:14:33;24.60;87.10
27803;DHT22;15182;48.174;11.562;2022-10-18T16:17:06;24.50;88.40
27803;DHT22;15182;48.174;11.562;2022-10-18T16:19:45;24.60;88.00
27803;DHT22;15182;48.174;11.562;2022-10-18T16:22:16;24.50;88.10
27803;DHT22;15182;48.174;11.562;2022-10-18T16:24:47;24.50;88.40